Exuberant — WDF4052 — position and weather

sailwx.info

Track history (hours):
 
Tides and Currents Weather Stations Pressure Air Temp Water Temp Dewpoint Dewpoint Depression Visibility Wind Speed Wind Dir Waves Ship Positions

Exuberant

Owner: Preston, Burton L, Mansfield, OH. More information available from US FCC via Universal Licensing System and Coast Guard Vessel Documentation Center.

Last reported at 2017-Sep-13 12:45 UTC. Time now 2017-Sep-25 00:47 UTC.
Position N 39°12' W 076°16'.
Warning: this ship's position is 11 days out of date.

Length 14 m.

Type: Sailing vessel. MMSI: 367447410.

Date/timePositionNaut miles runAvg speedWind from/ knotsBaromVisibWave heightAir tempDewpointWater temp
2017-Sep-13 12:45N 39°12' W 076°16'2 8.0
2017-Sep-13 12:29N 39°14' W 076°15'4 8.3
2017-Sep-13 12:00N 39°17' W 076°13'4 8.4
2017-Sep-13 11:30N 39°21' W 076°10'4 8.8
2017-Sep-13 11:00N 39°23' W 076°05'4 8.1
2017-Sep-13 10:30N 39°26' W 076°01'4 8.2
2017-Sep-13 10:00N 39°29' W 075°57'4 7.7
2017-Sep-13 09:30N 39°31' W 075°53'3 6.5
2017-Sep-13 09:00N 39°32' W 075°49'3 6.8
2017-Sep-13 08:30N 39°32' W 075°45'3 6.5
2017-Sep-13 08:00N 39°33' W 075°41'3 6.2
2017-Sep-13 07:30N 39°33' W 075°37'3 5.7
2017-Sep-13 07:01N 39°34' W 075°33'4 7.9
2017-Sep-13 06:30N 39°30' W 075°33'4 7.1
2017-Sep-13 06:00N 39°26' W 075°32'4 7.3
2017-Sep-13 05:30N 39°24' W 075°29'3 6.9
2017-Sep-13 05:00N 39°21' W 075°26'3 6.8
2017-Sep-13 04:30N 39°18' W 075°23'4 7.4
2017-Sep-13 04:00N 39°16' W 075°20'3 6.4
2017-Sep-13 03:30N 39°13' W 075°17'3 6.5
2017-Sep-13 03:00N 39°10' W 075°16'3 6.3
2017-Sep-13 02:30N 39°07' W 075°14'2 0.5
2017-Sep-12 21:42N 39°05' W 075°16'0 1.0
2017-Sep-12 21:31N 39°06' W 075°16'3 6.2
2017-Sep-12 21:00N 39°05' W 075°12'3 6.1
2017-Sep-12 20:30N 39°03' W 075°10'5 6.7
2017-Sep-12 19:43N 38°58' W 075°07'30 5.6
2017-Sep-12 14:19N 39°09' W 074°30'3 7.5
2017-Sep-12 13:59N 39°11' W 074°28'4 7.5
2017-Sep-12 13:29N 39°13' W 074°24'  
Track history (hours):
 
Tides and Currents Weather Stations Pressure Air Temp Water Temp Dewpoint Dewpoint Depression Visibility Wind Speed Wind Dir Waves Ship Positions

Exuberant

Owner: Preston, Burton L, Mansfield, OH. More information available from US FCC via Universal Licensing System and Coast Guard Vessel Documentation Center.

Last reported at 2017-Sep-13 12:45 UTC. Time now 2017-Sep-25 00:47 UTC.
Position N 39°12' W 076°16'.
Warning: this ship's position is 11 days out of date.

Length 14 m.

Type: Sailing vessel. MMSI: 367447410.

Date/timePositionNaut miles runAvg speedWind from/ knotsBaromVisibWave heightAir tempDewpointWater temp
2017-Sep-13 12:45N 39°12' W 076°16'2 8.0
2017-Sep-13 12:29N 39°14' W 076°15'4 8.3
2017-Sep-13 12:00N 39°17' W 076°13'4 8.4
2017-Sep-13 11:30N 39°21' W 076°10'4 8.8
2017-Sep-13 11:00N 39°23' W 076°05'4 8.1
2017-Sep-13 10:30N 39°26' W 076°01'4 8.2
2017-Sep-13 10:00N 39°29' W 075°57'4 7.7
2017-Sep-13 09:30N 39°31' W 075°53'3 6.5
2017-Sep-13 09:00N 39°32' W 075°49'3 6.8
2017-Sep-13 08:30N 39°32' W 075°45'3 6.5
2017-Sep-13 08:00N 39°33' W 075°41'3 6.2
2017-Sep-13 07:30N 39°33' W 075°37'3 5.7
2017-Sep-13 07:01N 39°34' W 075°33'4 7.9
2017-Sep-13 06:30N 39°30' W 075°33'4 7.1
2017-Sep-13 06:00N 39°26' W 075°32'4 7.3
2017-Sep-13 05:30N 39°24' W 075°29'3 6.9
2017-Sep-13 05:00N 39°21' W 075°26'3 6.8
2017-Sep-13 04:30N 39°18' W 075°23'4 7.4
2017-Sep-13 04:00N 39°16' W 075°20'3 6.4
2017-Sep-13 03:30N 39°13' W 075°17'3 6.5
2017-Sep-13 03:00N 39°10' W 075°16'3 6.3
2017-Sep-13 02:30N 39°07' W 075°14'2 0.5
2017-Sep-12 21:42N 39°05' W 075°16'0 1.0
2017-Sep-12 21:31N 39°06' W 075°16'3 6.2
2017-Sep-12 21:00N 39°05' W 075°12'3 6.1
2017-Sep-12 20:30N 39°03' W 075°10'5 6.7
2017-Sep-12 19:43N 38°58' W 075°07'30 5.6
2017-Sep-12 14:19N 39°09' W 074°30'3 7.5
2017-Sep-12 13:59N 39°11' W 074°28'4 7.5
2017-Sep-12 13:29N 39°13' W 074°24'  

Dump ship's entire track history